Friday, July 20, 2018, 10:36 AM MDT
Back to Local

KGLD, Goodland Renner Field

Location: Goodland, KS, United States Lat: 39.367
Local Time: 10:36 AM MDT (16:36 GMT) Lon: -101.7
Time Zone: US/Mountain Elev: 3654 ft

Show me the last for .
Show Decoded

2018-07-20 09:53 METAR KGLD 201553Z AUTO 16010KT 10SM CLR 28/19 A3000 RMK AO2 SLP105 T02830194 =
2018-07-20 08:53 METAR KGLD 201453Z AUTO 15011KT 10SM CLR 26/21 A2999 RMK AO2 SLP103 T02610206
                 51007 =
2018-07-20 07:53 METAR KGLD 201353Z AUTO 14008KT 10SM CLR 24/21 A2999 RMK AO2 SLP103 T02390211 =
2018-07-20 06:53 METAR KGLD 201253Z AUTO 15008KT 7SM CLR 22/21 A2998 RMK AO2 SLP097 T02170206 =
2018-07-20 05:53 METAR KGLD 201153Z AUTO 13008KT 5SM BR CLR 19/19 A2997 RMK AO2 SLP093 T01940189
                 10228 20183 56004 =
2018-07-20 04:53 METAR KGLD 201053Z AUTO 14004KT 4SM BR CLR 19/19 A2997 RMK AO2 SLP093 T01940189
                 =
2018-07-20 03:53 METAR KGLD 200953Z AUTO 13006KT 6SM BR CLR 20/19 A2997 RMK AO2 SLP092 T02000194
                 =
2018-07-20 02:53 METAR KGLD 200853Z AUTO 09005KT 7SM CLR 19/18 A2998 RMK AO2 SLP096 T01890183
                 55005 =
2018-07-20 01:53 METAR KGLD 200753Z AUTO 11004KT 10SM CLR 19/18 A2998 RMK AO2 SLP097 T01940183 =
2018-07-20 00:53 METAR KGLD 200653Z AUTO 13005KT 10SM CLR 21/20 A2999 RMK AO2 SLP101 T02110200
                 403780172 =
2018-07-19 23:53 METAR KGLD 200553Z AUTO 12006KT 10SM CLR 23/21 A2999 RMK AO2 SLP102 T02280206
                 10356 20228 51010 =
2018-07-19 22:53 METAR KGLD 200453Z AUTO 11008KT 10SM CLR 24/22 A2999 RMK AO2 SLP098 T02440217 =
2018-07-19 21:53 METAR KGLD 200353Z AUTO 12008KT 10SM CLR 26/22 A2999 RMK AO2 SLP099 T02610217 =
2018-07-19 20:53 METAR KGLD 200253Z AUTO 10008KT 10SM CLR 27/22 A2996 RMK AO2 SLP091 T02720217
                 53009 =
2018-07-19 19:53 METAR KGLD 200153Z AUTO 09008KT 10SM CLR 29/19 A2993 RMK AO2 SLP083 T02940194 =
2018-07-19 18:53 METAR KGLD 200053Z AUTO 10008KT 10SM CLR 33/16 A2993 RMK AO2 SLP081 T03330161 =
2018-07-19 17:53 METAR KGLD 192353Z AUTO 10009KT 10SM CLR 36/14 A2993 RMK AO2 SLP083 T03560144
                 10378 20328 56009 =
2018-07-19 16:53 METAR KGLD 192253Z AUTO 08011G16KT 10SM CLR 37/16 A2993 RMK AO2 SLP083 T03670161
                 =
2018-07-19 15:53 METAR KGLD 192153Z AUTO 07007G16KT 10SM CLR 37/13 A2995 RMK AO2 SLP085 T03720133
                 =
2018-07-19 14:53 METAR KGLD 192053Z AUTO 01010KT 10SM CLR 37/14 A2996 RMK AO2 SLP090 T03720144
                 58009 =
2018-07-19 13:53 METAR KGLD 191953Z AUTO 33009G16KT 10SM CLR 36/17 A2997 RMK AO2 SLP096 T03610167
                 =
2018-07-19 12:53 METAR KGLD 191853Z AUTO 31009KT 10SM CLR 34/18 A2998 RMK AO2 SLP100 T03440183 =
2018-07-19 11:53 METAR KGLD 191753Z AUTO 34010KT 10SM CLR 33/19 A2999 RMK AO2 SLP102 T03330194
                 10339 20172 55003 =
2018-07-19 10:53 METAR KGLD 191653Z AUTO 27006KT 10SM CLR 33/18 A2999 RMK AO2 SLP102 T03280183 =

Support USWX by starting your Amazon purchase here.